sensor_id;sensor_type;location;lat;lon;timestamp;P1;durP1;ratioP1;P2;durP2;ratioP2
35576;SDS011;21680;52.400;16.920;2022-08-19T00:00:34;17.05;;;10.13;;
35576;SDS011;21680;52.400;16.920;2022-08-19T00:03:04;15.35;;;11.15;;
35576;SDS011;21680;52.400;16.920;2022-08-19T00:05:32;16.70;;;10.48;;
35576;SDS011;21680;52.400;16.920;2022-08-19T00:08:01;16.82;;;11.08;;
35576;SDS011;21680;52.400;16.920;2022-08-19T00:10:30;20.95;;;11.25;;
35576;SDS011;21680;52.400;16.920;2022-08-19T00:12:56;14.07;;;9.78;;
35576;SDS011;21680;52.400;16.920;2022-08-19T00:15:22;20.80;;;10.43;;
35576;SDS011;21680;52.400;16.920;2022-08-19T00:17:49;20.40;;;10.45;;
35576;SDS011;21680;52.400;16.920;2022-08-19T00:20:16;16.37;;;10.65;;
35576;SDS011;21680;52.400;16.920;2022-08-19T00:22:45;17.93;;;10.63;;
35576;SDS011;21680;52.400;16.920;2022-08-19T00:25:13;17.85;;;10.45;;
35576;SDS011;21680;52.400;16.920;2022-08-19T00:27:40;14.15;;;9.85;;
35576;SDS011;21680;52.400;16.920;2022-08-19T00:30:07;19.02;;;10.35;;
35576;SDS011;21680;52.400;16.920;2022-08-19T00:32:35;11.18;;;10.03;;
35576;SDS011;21680;52.400;16.920;2022-08-19T00:35:01;19.17;;;11.10;;
35576;SDS011;21680;52.400;16.920;2022-08-19T00:37:29;16.32;;;11.60;;
35576;SDS011;21680;52.400;16.920;2022-08-19T00:39:56;17.67;;;10.60;;
35576;SDS011;21680;52.400;16.920;2022-08-19T00:42:22;16.80;;;10.30;;
35576;SDS011;21680;52.400;16.920;2022-08-19T00:44:48;14.47;;;10.00;;
35576;SDS011;21680;52.400;16.920;2022-08-19T00:47:15;15.53;;;9.85;;
35576;SDS011;21680;52.400;16.920;2022-08-19T00:49:43;16.42;;;9.70;;
35576;SDS011;21680;52.400;16.920;2022-08-19T00:52:17;17.77;;;10.60;;
35576;SDS011;21680;52.400;16.920;2022-08-19T00:54:54;13.75;;;9.85;;
35576;SDS011;21680;52.400;16.920;2022-08-19T00:57:25;15.72;;;9.98;;
35576;SDS011;21680;52.400;16.920;2022-08-19T00:59:54;14.38;;;10.05;;
35576;SDS011;21680;52.400;16.920;2022-08-19T01:02:24;11.78;;;9.50;;
35576;SDS011;21680;52.400;16.920;2022-08-19T01:04:52;14.60;;;10.68;;
35576;SDS011;21680;52.400;16.920;2022-08-19T01:07:19;16.60;;;10.72;;
35576;SDS011;21680;52.400;16.920;2022-08-19T01:09:45;20.27;;;9.65;;
35576;SDS011;21680;52.400;16.920;2022-08-19T01:12:11;13.38;;;10.03;;
35576;SDS011;21680;52.400;16.920;2022-08-19T01:14:39;12.80;;;9.80;;
35576;SDS011;21680;52.400;16.920;2022-08-19T01:17:07;16.27;;;10.38;;
35576;SDS011;21680;52.400;16.920;2022-08-19T01:19:36;13.13;;;9.60;;
35576;SDS011;21680;52.400;16.920;2022-08-19T01:24:44;14.47;;;9.55;;
35576;SDS011;21680;52.400;16.920;2022-08-19T01:27:10;11.25;;;9.90;;
35576;SDS011;21680;52.400;16.920;2022-08-19T01:29:37;13.22;;;10.20;;
35576;SDS011;21680;52.400;16.920;2022-08-19T01:32:07;18.05;;;10.18;;
35576;SDS011;21680;52.400;16.920;2022-08-19T01:37:07;19.65;;;10.40;;
35576;SDS011;21680;52.400;16.920;2022-08-19T01:39:37;13.30;;;9.30;;
35576;SDS011;21680;52.400;16.920;2022-08-19T01:42:05;12.90;;;9.60;;
35576;SDS011;21680;52.400;16.920;2022-08-19T01:44:34;14.00;;;9.38;;
35576;SDS011;21680;52.400;16.920;2022-08-19T01:47:01;15.98;;;9.23;;
35576;SDS011;21680;52.400;16.920;2022-08-19T01:49:29;16.12;;;9.38;;
35576;SDS011;21680;52.400;16.920;2022-08-19T01:51:55;14.18;;;9.33;;
35576;SDS011;21680;52.400;16.920;2022-08-19T01:54:23;15.50;;;9.63;;
35576;SDS011;21680;52.400;16.920;2022-08-19T01:56:51;13.58;;;9.50;;
35576;SDS011;21680;52.400;16.920;2022-08-19T01:59:21;13.22;;;9.90;;
35576;SDS011;21680;52.400;16.920;2022-08-19T02:01:49;14.73;;;9.78;;
35576;SDS011;21680;52.400;16.920;2022-08-19T02:04:15;12.68;;;9.08;;
35576;SDS011;21680;52.400;16.920;2022-08-19T02:06:41;14.40;;;9.48;;
35576;SDS011;21680;52.400;16.920;2022-08-19T02:09:07;23.90;;;10.88;;
35576;SDS011;21680;52.400;16.920;2022-08-19T02:11:34;17.60;;;10.30;;
35576;SDS011;21680;52.400;16.920;2022-08-19T02:14:04;11.93;;;9.53;;
35576;SDS011;21680;52.400;16.920;2022-08-19T02:16:33;15.28;;;10.72;;
35576;SDS011;21680;52.400;16.920;2022-08-19T02:19:00;20.62;;;8.85;;
35576;SDS011;21680;52.400;16.920;2022-08-19T02:21:27;17.48;;;9.73;;
35576;SDS011;21680;52.400;16.920;2022-08-19T02:23:54;15.32;;;10.18;;
35576;SDS011;21680;52.400;16.920;2022-08-19T02:26:21;14.13;;;9.83;;
35576;SDS011;21680;52.400;16.920;2022-08-19T02:28:47;13.15;;;9.40;;
35576;SDS011;21680;52.400;16.920;2022-08-19T02:31:19;16.12;;;9.58;;
35576;SDS011;21680;52.400;16.920;2022-08-19T02:33:44;11.50;;;9.53;;
35576;SDS011;21680;52.400;16.920;2022-08-19T02:36:12;19.45;;;9.50;;
35576;SDS011;21680;52.400;16.920;2022-08-19T02:38:40;16.40;;;9.95;;
35576;SDS011;21680;52.400;16.920;2022-08-19T02:41:14;12.18;;;10.00;;
35576;SDS011;21680;52.400;16.920;2022-08-19T02:43:50;18.65;;;9.98;;
35576;SDS011;21680;52.400;16.920;2022-08-19T02:46:20;14.93;;;10.43;;
35576;SDS011;21680;52.400;16.920;2022-08-19T02:48:54;16.05;;;9.78;;
35576;SDS011;21680;52.400;16.920;2022-08-19T02:51:28;13.93;;;9.60;;
35576;SDS011;21680;52.400;16.920;2022-08-19T02:53:57;18.40;;;9.28;;
35576;SDS011;21680;52.400;16.920;2022-08-19T02:56:23;14.15;;;10.03;;
35576;SDS011;21680;52.400;16.920;2022-08-19T02:58:51;18.25;;;9.80;;
35576;SDS011;21680;52.400;16.920;2022-08-19T03:01:24;12.40;;;9.73;;
35576;SDS011;21680;52.400;16.920;2022-08-19T03:03:53;13.58;;;10.05;;
35576;SDS011;21680;52.400;16.920;2022-08-19T03:06:21;13.88;;;10.20;;
35576;SDS011;21680;52.400;16.920;2022-08-19T03:08:47;16.60;;;9.35;;
35576;SDS011;21680;52.400;16.920;2022-08-19T03:11:16;19.10;;;11.08;;
35576;SDS011;21680;52.400;16.920;2022-08-19T03:13:51;14.93;;;9.75;;
35576;SDS011;21680;52.400;16.920;2022-08-19T03:16:19;15.90;;;10.03;;
35576;SDS011;21680;52.400;16.920;2022-08-19T03:18:51;15.58;;;10.45;;
35576;SDS011;21680;52.400;16.920;2022-08-19T03:21:23;15.68;;;10.30;;
35576;SDS011;21680;52.400;16.920;2022-08-19T03:23:49;12.85;;;9.75;;
35576;SDS011;21680;52.400;16.920;2022-08-19T03:26:21;14.45;;;9.93;;
35576;SDS011;21680;52.400;16.920;2022-08-19T03:28:47;14.63;;;9.58;;
35576;SDS011;21680;52.400;16.920;2022-08-19T03:31:16;17.20;;;10.15;;
35576;SDS011;21680;52.400;16.920;2022-08-19T03:33:48;20.05;;;11.63;;
35576;SDS011;21680;52.400;16.920;2022-08-19T03:36:17;14.20;;;9.98;;
35576;SDS011;21680;52.400;16.920;2022-08-19T03:38:47;16.48;;;10.10;;
35576;SDS011;21680;52.400;16.920;2022-08-19T03:41:18;19.48;;;11.22;;
35576;SDS011;21680;52.400;16.920;2022-08-19T03:43:47;16.45;;;10.40;;
35576;SDS011;21680;52.400;16.920;2022-08-19T03:46:19;14.93;;;10.93;;
35576;SDS011;21680;52.400;16.920;2022-08-19T03:48:50;11.40;;;10.05;;
35576;SDS011;21680;52.400;16.920;2022-08-19T03:51:22;17.07;;;10.28;;
35576;SDS011;21680;52.400;16.920;2022-08-19T03:53:54;16.97;;;11.08;;
35576;SDS011;21680;52.400;16.920;2022-08-19T03:56:21;14.15;;;10.60;;
35576;SDS011;21680;52.400;16.920;2022-08-19T03:58:49;17.10;;;10.85;;
35576;SDS011;21680;52.400;16.920;2022-08-19T04:01:16;18.95;;;11.50;;
35576;SDS011;21680;52.400;16.920;2022-08-19T04:03:45;16.85;;;10.38;;
35576;SDS011;21680;52.400;16.920;2022-08-19T04:06:20;14.15;;;10.75;;
35576;SDS011;21680;52.400;16.920;2022-08-19T04:08:49;14.28;;;10.32;;
35576;SDS011;21680;52.400;16.920;2022-08-19T04:13:49;16.12;;;11.10;;
35576;SDS011;21680;52.400;16.920;2022-08-19T04:16:17;12.35;;;10.18;;
35576;SDS011;21680;52.400;16.920;2022-08-19T04:18:45;15.05;;;10.80;;
35576;SDS011;21680;52.400;16.920;2022-08-19T04:21:21;17.10;;;11.12;;
35576;SDS011;21680;52.400;16.920;2022-08-19T04:23:49;14.78;;;10.60;;
35576;SDS011;21680;52.400;16.920;2022-08-19T04:26:16;14.55;;;11.38;;
35576;SDS011;21680;52.400;16.920;2022-08-19T04:28:46;15.35;;;11.25;;
35576;SDS011;21680;52.400;16.920;2022-08-19T04:31:13;22.45;;;10.32;;
35576;SDS011;21680;52.400;16.920;2022-08-19T04:33:43;14.07;;;10.30;;
35576;SDS011;21680;52.400;16.920;2022-08-19T04:36:15;18.40;;;11.12;;
35576;SDS011;21680;52.400;16.920;2022-08-19T04:38:46;15.80;;;10.85;;
35576;SDS011;21680;52.400;16.920;2022-08-19T04:41:14;18.50;;;11.20;;
35576;SDS011;21680;52.400;16.920;2022-08-19T04:43:59;19.17;;;10.60;;
35576;SDS011;21680;52.400;16.920;2022-08-19T04:46:26;18.52;;;11.03;;
35576;SDS011;21680;52.400;16.920;2022-08-19T04:48:53;15.40;;;10.35;;
35576;SDS011;21680;52.400;16.920;2022-08-19T04:51:21;17.75;;;10.80;;
35576;SDS011;21680;52.400;16.920;2022-08-19T04:53:48;20.85;;;10.28;;
35576;SDS011;21680;52.400;16.920;2022-08-19T04:56:14;16.93;;;10.88;;
35576;SDS011;21680;52.400;16.920;2022-08-19T04:58:45;14.28;;;10.38;;
35576;SDS011;21680;52.400;16.920;2022-08-19T05:01:12;18.45;;;10.18;;
35576;SDS011;21680;52.400;16.920;2022-08-19T05:03:46;17.70;;;10.55;;
35576;SDS011;21680;52.400;16.920;2022-08-19T05:06:13;16.77;;;10.68;;
35576;SDS011;21680;52.400;16.920;2022-08-19T05:08:42;20.55;;;10.95;;
35576;SDS011;21680;52.400;16.920;2022-08-19T05:11:11;20.90;;;10.25;;
35576;SDS011;21680;52.400;16.920;2022-08-19T05:13:55;16.48;;;11.15;;
35576;SDS011;21680;52.400;16.920;2022-08-19T05:16:22;22.27;;;11.55;;
35576;SDS011;21680;52.400;16.920;2022-08-19T05:18:50;13.40;;;11.03;;
35576;SDS011;21680;52.400;16.920;2022-08-19T05:21:35;16.27;;;10.23;;
35576;SDS011;21680;52.400;16.920;2022-08-19T05:24:21;21.05;;;11.45;;
35576;SDS011;21680;52.400;16.920;2022-08-19T05:26:49;15.30;;;11.00;;
35576;SDS011;21680;52.400;16.920;2022-08-19T05:29:19;17.75;;;10.98;;
35576;SDS011;21680;52.400;16.920;2022-08-19T05:31:47;20.12;;;11.90;;
35576;SDS011;21680;52.400;16.920;2022-08-19T05:34:17;16.77;;;11.43;;
35576;SDS011;21680;52.400;16.920;2022-08-19T05:36:51;19.07;;;11.55;;
35576;SDS011;21680;52.400;16.920;2022-08-19T05:39:23;19.45;;;10.93;;
35576;SDS011;21680;52.400;16.920;2022-08-19T05:41:55;17.42;;;10.38;;
35576;SDS011;21680;52.400;16.920;2022-08-19T05:44:27;17.02;;;11.15;;
35576;SDS011;21680;52.400;16.920;2022-08-19T05:46:56;16.82;;;10.72;;
35576;SDS011;21680;52.400;16.920;2022-08-19T05:49:24;18.73;;;11.18;;
35576;SDS011;21680;52.400;16.920;2022-08-19T05:51:52;16.00;;;10.60;;
35576;SDS011;21680;52.400;16.920;2022-08-19T05:54:21;18.85;;;10.55;;
35576;SDS011;21680;52.400;16.920;2022-08-19T05:56:49;17.32;;;11.10;;
35576;SDS011;21680;52.400;16.920;2022-08-19T05:59:17;15.83;;;10.03;;
35576;SDS011;21680;52.400;16.920;2022-08-19T06:01:47;20.55;;;10.98;;
35576;SDS011;21680;52.400;16.920;2022-08-19T06:04:17;16.07;;;10.43;;
35576;SDS011;21680;52.400;16.920;2022-08-19T06:06:46;24.75;;;11.55;;
35576;SDS011;21680;52.400;16.920;2022-08-19T06:09:17;21.00;;;10.93;;
35576;SDS011;21680;52.400;16.920;2022-08-19T06:11:49;18.92;;;10.60;;
35576;SDS011;21680;52.400;16.920;2022-08-19T06:14:20;20.02;;;11.57;;
35576;SDS011;21680;52.400;16.920;2022-08-19T06:16:50;15.80;;;9.50;;
35576;SDS011;21680;52.400;16.920;2022-08-19T06:19:18;19.95;;;10.38;;
35576;SDS011;21680;52.400;16.920;2022-08-19T06:21:47;13.80;;;10.08;;
35576;SDS011;21680;52.400;16.920;2022-08-19T06:24:17;16.30;;;10.58;;
35576;SDS011;21680;52.400;16.920;2022-08-19T06:26:49;14.60;;;10.43;;
35576;SDS011;21680;52.400;16.920;2022-08-19T06:29:19;18.90;;;10.68;;
35576;SDS011;21680;52.400;16.920;2022-08-19T06:31:49;22.85;;;11.35;;
35576;SDS011;21680;52.400;16.920;2022-08-19T06:34:19;13.43;;;10.00;;
35576;SDS011;21680;52.400;16.920;2022-08-19T06:36:49;15.65;;;10.98;;
35576;SDS011;21680;52.400;16.920;2022-08-19T06:39:21;16.32;;;11.35;;
35576;SDS011;21680;52.400;16.920;2022-08-19T06:41:48;16.40;;;10.93;;
35576;SDS011;21680;52.400;16.920;2022-08-19T06:44:18;18.07;;;10.45;;
35576;SDS011;21680;52.400;16.920;2022-08-19T06:46:47;16.62;;;10.53;;
35576;SDS011;21680;52.400;16.920;2022-08-19T06:49:14;19.48;;;11.03;;
35576;SDS011;21680;52.400;16.920;2022-08-19T06:51:46;23.02;;;11.12;;
35576;SDS011;21680;52.400;16.920;2022-08-19T06:54:14;23.90;;;11.45;;
35576;SDS011;21680;52.400;16.920;2022-08-19T06:56:43;23.73;;;10.82;;
35576;SDS011;21680;52.400;16.920;2022-08-19T06:59:12;18.98;;;10.25;;
35576;SDS011;21680;52.400;16.920;2022-08-19T07:01:42;26.85;;;10.60;;
35576;SDS011;21680;52.400;16.920;2022-08-19T07:04:13;13.20;;;9.78;;
35576;SDS011;21680;52.400;16.920;2022-08-19T07:06:42;17.02;;;10.45;;
35576;SDS011;21680;52.400;16.920;2022-08-19T07:09:10;26.27;;;11.65;;
35576;SDS011;21680;52.400;16.920;2022-08-19T07:11:44;16.97;;;10.90;;
35576;SDS011;21680;52.400;16.920;2022-08-19T07:14:12;14.73;;;10.08;;
35576;SDS011;21680;52.400;16.920;2022-08-19T07:16:41;14.55;;;10.58;;
35576;SDS011;21680;52.400;16.920;2022-08-19T07:19:07;21.85;;;10.48;;
35576;SDS011;21680;52.400;16.920;2022-08-19T07:21:33;19.05;;;10.85;;
35576;SDS011;21680;52.400;16.920;2022-08-19T07:23:58;19.90;;;10.63;;
35576;SDS011;21680;52.400;16.920;2022-08-19T07:26:29;20.48;;;10.70;;
35576;SDS011;21680;52.400;16.920;2022-08-19T07:28:59;15.78;;;10.43;;
35576;SDS011;21680;52.400;16.920;2022-08-19T07:31:27;14.53;;;10.88;;
35576;SDS011;21680;52.400;16.920;2022-08-19T07:33:54;22.42;;;11.65;;
35576;SDS011;21680;52.400;16.920;2022-08-19T07:36:25;16.70;;;11.20;;
35576;SDS011;21680;52.400;16.920;2022-08-19T07:38:55;15.30;;;11.48;;
35576;SDS011;21680;52.400;16.920;2022-08-19T07:41:21;17.90;;;11.38;;
35576;SDS011;21680;52.400;16.920;2022-08-19T07:43:50;17.73;;;10.85;;
35576;SDS011;21680;52.400;16.920;2022-08-19T07:46:17;17.10;;;10.93;;
35576;SDS011;21680;52.400;16.920;2022-08-19T07:48:46;25.97;;;12.00;;
35576;SDS011;21680;52.400;16.920;2022-08-19T07:51:17;18.73;;;11.27;;
35576;SDS011;21680;52.400;16.920;2022-08-19T07:53:46;17.65;;;10.63;;
35576;SDS011;21680;52.400;16.920;2022-08-19T07:56:16;24.90;;;11.12;;
35576;SDS011;21680;52.400;16.920;2022-08-19T07:58:45;16.17;;;10.68;;
35576;SDS011;21680;52.400;16.920;2022-08-19T08:01:16;20.70;;;11.97;;
35576;SDS011;21680;52.400;16.920;2022-08-19T08:03:45;15.98;;;10.98;;
35576;SDS011;21680;52.400;16.920;2022-08-19T08:06:30;17.00;;;11.45;;
35576;SDS011;21680;52.400;16.920;2022-08-19T08:09:16;17.02;;;12.03;;
35576;SDS011;21680;52.400;16.920;2022-08-19T08:11:54;13.88;;;11.25;;
35576;SDS011;21680;52.400;16.920;2022-08-19T08:14:26;16.05;;;10.93;;
35576;SDS011;21680;52.400;16.920;2022-08-19T08:16:55;17.07;;;10.35;;
35576;SDS011;21680;52.400;16.920;2022-08-19T08:19:23;24.25;;;11.43;;
35576;SDS011;21680;52.400;16.920;2022-08-19T08:21:51;20.90;;;12.03;;
35576;SDS011;21680;52.400;16.920;2022-08-19T08:24:23;16.25;;;11.33;;
35576;SDS011;21680;52.400;16.920;2022-08-19T08:26:52;26.57;;;11.45;;
35576;SDS011;21680;52.400;16.920;2022-08-19T08:29:18;19.20;;;12.37;;
35576;SDS011;21680;52.400;16.920;2022-08-19T08:31:45;20.05;;;11.05;;
35576;SDS011;21680;52.400;16.920;2022-08-19T08:34:13;20.95;;;12.07;;
35576;SDS011;21680;52.400;16.920;2022-08-19T08:36:40;16.87;;;11.00;;
35576;SDS011;21680;52.400;16.920;2022-08-19T08:39:14;18.25;;;10.75;;
35576;SDS011;21680;52.400;16.920;2022-08-19T08:41:49;17.12;;;12.28;;
35576;SDS011;21680;52.400;16.920;2022-08-19T08:47:32;19.07;;;13.15;;
35576;SDS011;21680;52.400;16.920;2022-08-19T08:50:04;15.80;;;12.13;;
35576;SDS011;21680;52.400;16.920;2022-08-19T08:52:45;24.75;;;13.38;;
35576;SDS011;21680;52.400;16.920;2022-08-19T08:55:15;18.10;;;12.88;;
35576;SDS011;21680;52.400;16.920;2022-08-19T09:00:32;19.12;;;11.68;;
35576;SDS011;21680;52.400;16.920;2022-08-19T09:03:02;17.50;;;11.48;;
35576;SDS011;21680;52.400;16.920;2022-08-19T09:05:43;20.82;;;12.23;;
35576;SDS011;21680;52.400;16.920;2022-08-19T09:08:17;21.48;;;11.53;;
35576;SDS011;21680;52.400;16.920;2022-08-19T09:11:03;16.25;;;12.23;;
35576;SDS011;21680;52.400;16.920;2022-08-19T09:13:54;21.85;;;12.47;;
35576;SDS011;21680;52.400;16.920;2022-08-19T09:16:26;15.68;;;11.97;;
35576;SDS011;21680;52.400;16.920;2022-08-19T09:18:54;18.85;;;12.35;;
35576;SDS011;21680;52.400;16.920;2022-08-19T09:21:24;14.10;;;11.75;;
35576;SDS011;21680;52.400;16.920;2022-08-19T09:23:52;12.45;;;10.65;;
35576;SDS011;21680;52.400;16.920;2022-08-19T09:26:20;18.17;;;12.03;;
35576;SDS011;21680;52.400;16.920;2022-08-19T09:28:48;16.73;;;11.63;;
35576;SDS011;21680;52.400;16.920;2022-08-19T09:31:19;18.02;;;11.65;;
35576;SDS011;21680;52.400;16.920;2022-08-19T09:33:48;21.42;;;11.12;;
35576;SDS011;21680;52.400;16.920;2022-08-19T09:36:17;20.20;;;11.97;;
35576;SDS011;21680;52.400;16.920;2022-08-19T09:38:47;13.48;;;11.05;;
35576;SDS011;21680;52.400;16.920;2022-08-19T09:41:15;17.70;;;10.68;;
35576;SDS011;21680;52.400;16.920;2022-08-19T09:43:44;16.82;;;11.75;;
35576;SDS011;21680;52.400;16.920;2022-08-19T09:46:12;20.27;;;11.03;;
35576;SDS011;21680;52.400;16.920;2022-08-19T09:48:39;17.10;;;10.58;;
35576;SDS011;21680;52.400;16.920;2022-08-19T09:51:12;15.72;;;11.75;;
35576;SDS011;21680;52.400;16.920;2022-08-19T09:53:37;14.53;;;11.80;;
35576;SDS011;21680;52.400;16.920;2022-08-19T09:56:05;17.90;;;11.25;;
35576;SDS011;21680;52.400;16.920;2022-08-19T09:58:32;15.43;;;10.45;;
35576;SDS011;21680;52.400;16.920;2022-08-19T10:00:59;17.52;;;11.12;;
35576;SDS011;21680;52.400;16.920;2022-08-19T10:03:27;17.90;;;9.38;;
35576;SDS011;21680;52.400;16.920;2022-08-19T10:05:55;15.23;;;10.00;;
35576;SDS011;21680;52.400;16.920;2022-08-19T10:08:25;17.32;;;8.85;;
35576;SDS011;21680;52.400;16.920;2022-08-19T10:10:56;23.25;;;9.48;;
35576;SDS011;21680;52.400;16.920;2022-08-19T10:13:23;15.68;;;9.15;;
35576;SDS011;21680;52.400;16.920;2022-08-19T10:15:52;14.25;;;9.30;;
35576;SDS011;21680;52.400;16.920;2022-08-19T10:18:21;32.35;;;9.98;;
35576;SDS011;21680;52.400;16.920;2022-08-19T10:20:50;19.02;;;9.33;;
35576;SDS011;21680;52.400;16.920;2022-08-19T10:23:19;14.90;;;9.00;;
35576;SDS011;21680;52.400;16.920;2022-08-19T10:25:46;14.05;;;9.10;;
35576;SDS011;21680;52.400;16.920;2022-08-19T10:28:13;18.15;;;9.63;;
35576;SDS011;21680;52.400;16.920;2022-08-19T10:30:40;12.53;;;9.38;;
35576;SDS011;21680;52.400;16.920;2022-08-19T10:33:07;12.88;;;9.70;;
35576;SDS011;21680;52.400;16.920;2022-08-19T10:35:33;13.85;;;9.98;;
35576;SDS011;21680;52.400;16.920;2022-08-19T10:37:58;16.32;;;9.30;;
35576;SDS011;21680;52.400;16.920;2022-08-19T10:40:26;21.23;;;9.13;;
35576;SDS011;21680;52.400;16.920;2022-08-19T10:42:54;14.63;;;8.03;;
35576;SDS011;21680;52.400;16.920;2022-08-19T10:45:21;16.30;;;8.98;;
35576;SDS011;21680;52.400;16.920;2022-08-19T10:47:50;17.05;;;9.40;;
35576;SDS011;21680;52.400;16.920;2022-08-19T10:50:18;21.82;;;9.35;;
35576;SDS011;21680;52.400;16.920;2022-08-19T10:53:03;17.62;;;9.53;;
35576;SDS011;21680;52.400;16.920;2022-08-19T10:55:34;14.25;;;8.10;;
35576;SDS011;21680;52.400;16.920;2022-08-19T10:58:19;16.50;;;8.23;;
35576;SDS011;21680;52.400;16.920;2022-08-19T11:00:57;14.35;;;8.53;;
35576;SDS011;21680;52.400;16.920;2022-08-19T11:03:25;17.25;;;9.45;;
35576;SDS011;21680;52.400;16.920;2022-08-19T11:05:57;13.72;;;8.70;;
35576;SDS011;21680;52.400;16.920;2022-08-19T11:08:25;12.03;;;8.50;;
35576;SDS011;21680;52.400;16.920;2022-08-19T11:10:52;27.87;;;9.03;;
35576;SDS011;21680;52.400;16.920;2022-08-19T11:13:21;13.48;;;8.23;;
35576;SDS011;21680;52.400;16.920;2022-08-19T11:15:55;18.70;;;8.48;;
35576;SDS011;21680;52.400;16.920;2022-08-19T11:18:39;12.33;;;8.18;;
35576;SDS011;21680;52.400;16.920;2022-08-19T11:21:10;15.95;;;8.30;;
35576;SDS011;21680;52.400;16.920;2022-08-19T11:23:42;14.58;;;7.78;;
35576;SDS011;21680;52.400;16.920;2022-08-19T11:26:10;13.43;;;9.20;;
35576;SDS011;21680;52.400;16.920;2022-08-19T11:28:36;12.58;;;8.48;;
35576;SDS011;21680;52.400;16.920;2022-08-19T11:31:02;14.47;;;8.43;;
35576;SDS011;21680;52.400;16.920;2022-08-19T11:33:29;14.53;;;8.18;;
35576;SDS011;21680;52.400;16.920;2022-08-19T11:35:57;17.25;;;8.70;;
35576;SDS011;21680;52.400;16.920;2022-08-19T11:38:26;15.08;;;8.60;;
35576;SDS011;21680;52.400;16.920;2022-08-19T11:41:00;17.87;;;8.05;;
35576;SDS011;21680;52.400;16.920;2022-08-19T11:43:25;19.50;;;8.45;;
35576;SDS011;21680;52.400;16.920;2022-08-19T11:45:54;13.78;;;8.30;;
35576;SDS011;21680;52.400;16.920;2022-08-19T11:48:21;14.63;;;7.45;;
35576;SDS011;21680;52.400;16.920;2022-08-19T11:50:48;23.05;;;8.15;;
35576;SDS011;21680;52.400;16.920;2022-08-19T11:53:19;18.42;;;8.13;;
35576;SDS011;21680;52.400;16.920;2022-08-19T11:55:46;19.98;;;7.97;;
35576;SDS011;21680;52.400;16.920;2022-08-19T11:58:13;17.57;;;7.80;;
35576;SDS011;21680;52.400;16.920;2022-08-19T12:00:42;10.68;;;7.30;;
35576;SDS011;21680;52.400;16.920;2022-08-19T12:03:10;11.00;;;7.33;;
35576;SDS011;21680;52.400;16.920;2022-08-19T12:05:38;10.93;;;7.25;;
35576;SDS011;21680;52.400;16.920;2022-08-19T12:08:06;14.13;;;7.78;;
35576;SDS011;21680;52.400;16.920;2022-08-19T12:10:34;20.17;;;7.50;;
35576;SDS011;21680;52.400;16.920;2022-08-19T12:13:00;14.90;;;8.13;;
35576;SDS011;21680;52.400;16.920;2022-08-19T12:15:27;14.47;;;7.33;;
35576;SDS011;21680;52.400;16.920;2022-08-19T12:17:54;9.50;;;7.12;;
35576;SDS011;21680;52.400;16.920;2022-08-19T12:20:23;14.43;;;8.05;;
35576;SDS011;21680;52.400;16.920;2022-08-19T12:22:49;13.93;;;7.62;;
35576;SDS011;21680;52.400;16.920;2022-08-19T12:25:16;14.58;;;7.78;;
35576;SDS011;21680;52.400;16.920;2022-08-19T12:27:42;14.43;;;6.67;;
35576;SDS011;21680;52.400;16.920;2022-08-19T12:30:09;19.82;;;8.25;;
35576;SDS011;21680;52.400;16.920;2022-08-19T12:32:38;17.35;;;7.80;;
35576;SDS011;21680;52.400;16.920;2022-08-19T12:35:05;18.40;;;7.90;;
35576;SDS011;21680;52.400;16.920;2022-08-19T12:37:35;12.15;;;7.60;;
35576;SDS011;21680;52.400;16.920;2022-08-19T12:40:02;12.90;;;7.35;;
35576;SDS011;21680;52.400;16.920;2022-08-19T12:42:29;11.10;;;8.40;;
35576;SDS011;21680;52.400;16.920;2022-08-19T12:44:55;17.70;;;8.73;;
35576;SDS011;21680;52.400;16.920;2022-08-19T12:47:21;18.60;;;9.45;;
35576;SDS011;21680;52.400;16.920;2022-08-19T12:49:48;21.10;;;10.60;;
35576;SDS011;21680;52.400;16.920;2022-08-19T12:52:14;20.05;;;10.63;;
35576;SDS011;21680;52.400;16.920;2022-08-19T12:54:41;13.53;;;10.10;;
35576;SDS011;21680;52.400;16.920;2022-08-19T12:57:08;15.43;;;11.35;;
35576;SDS011;21680;52.400;16.920;2022-08-19T12:59:36;20.32;;;11.18;;
35576;SDS011;21680;52.400;16.920;2022-08-19T13:02:04;31.30;;;11.40;;
35576;SDS011;21680;52.400;16.920;2022-08-19T13:04:32;23.85;;;9.63;;
35576;SDS011;21680;52.400;16.920;2022-08-19T13:07:02;22.47;;;10.93;;
35576;SDS011;21680;52.400;16.920;2022-08-19T13:09:28;22.30;;;11.90;;
35576;SDS011;21680;52.400;16.920;2022-08-19T13:11:54;16.05;;;11.55;;
35576;SDS011;21680;52.400;16.920;2022-08-19T13:14:21;18.12;;;11.22;;
35576;SDS011;21680;52.400;16.920;2022-08-19T13:16:47;15.05;;;10.32;;
35576;SDS011;21680;52.400;16.920;2022-08-19T13:19:13;13.10;;;10.53;;
35576;SDS011;21680;52.400;16.920;2022-08-19T13:21:39;16.75;;;10.72;;
35576;SDS011;21680;52.400;16.920;2022-08-19T13:24:05;20.77;;;10.60;;
35576;SDS011;21680;52.400;16.920;2022-08-19T13:26:31;14.43;;;10.82;;
35576;SDS011;21680;52.400;16.920;2022-08-19T13:28:57;13.55;;;10.75;;
35576;SDS011;21680;52.400;16.920;2022-08-19T13:31:42;31.27;;;11.10;;
35576;SDS011;21680;52.400;16.920;2022-08-19T13:34:28;14.95;;;10.28;;
35576;SDS011;21680;52.400;16.920;2022-08-19T13:36:59;18.60;;;11.88;;
35576;SDS011;21680;52.400;16.920;2022-08-19T13:39:27;23.42;;;11.03;;
35576;SDS011;21680;52.400;16.920;2022-08-19T13:41:54;18.73;;;10.95;;
35576;SDS011;21680;52.400;16.920;2022-08-19T13:44:20;22.27;;;11.85;;
35576;SDS011;21680;52.400;16.920;2022-08-19T13:46:48;17.32;;;11.25;;
35576;SDS011;21680;52.400;16.920;2022-08-19T13:49:16;12.33;;;11.03;;
35576;SDS011;21680;52.400;16.920;2022-08-19T13:51:44;19.25;;;11.97;;
35576;SDS011;21680;52.400;16.920;2022-08-19T13:54:10;16.15;;;11.80;;
35576;SDS011;21680;52.400;16.920;2022-08-19T13:56:44;17.07;;;11.75;;
35576;SDS011;21680;52.400;16.920;2022-08-19T13:59:11;41.45;;;12.98;;
35576;SDS011;21680;52.400;16.920;2022-08-19T14:01:37;18.60;;;10.80;;
35576;SDS011;21680;52.400;16.920;2022-08-19T14:04:04;25.37;;;12.65;;
35576;SDS011;21680;52.400;16.920;2022-08-19T14:06:31;15.50;;;11.65;;
35576;SDS011;21680;52.400;16.920;2022-08-19T14:08:58;23.55;;;12.30;;
35576;SDS011;21680;52.400;16.920;2022-08-19T14:11:24;38.42;;;12.07;;
35576;SDS011;21680;52.400;16.920;2022-08-19T14:13:50;20.80;;;11.83;;
35576;SDS011;21680;52.400;16.920;2022-08-19T14:16:16;22.00;;;11.97;;
35576;SDS011;21680;52.400;16.920;2022-08-19T14:18:42;23.50;;;12.37;;
35576;SDS011;21680;52.400;16.920;2022-08-19T14:21:20;17.17;;;12.28;;
35576;SDS011;21680;52.400;16.920;2022-08-19T14:23:49;24.95;;;12.63;;
35576;SDS011;21680;52.400;16.920;2022-08-19T14:26:15;19.23;;;12.28;;
35576;SDS011;21680;52.400;16.920;2022-08-19T14:28:43;17.62;;;12.43;;
35576;SDS011;21680;52.400;16.920;2022-08-19T14:31:11;17.30;;;12.25;;
35576;SDS011;21680;52.400;16.920;2022-08-19T14:33:40;15.80;;;12.78;;
35576;SDS011;21680;52.400;16.920;2022-08-19T14:36:07;18.95;;;12.18;;
35576;SDS011;21680;52.400;16.920;2022-08-19T14:38:33;17.65;;;12.80;;